Time;durP1;ratioP1;P1;durP2;ratioP2;P2;SDS_P1;SDS_P2;PMS_P1;PMS_P2;Temp;Humidity;BMP_temperature;BMP_pressure;BME280_temperature;BME280_humidity;BME280_pressure;Samples;Min_cycle;Max_cycle;Signal;HPM_P1;HPM_P2
2023/11/17 00:01:24;;;;;;;9.55;4.93;;;5.00;99.90;;;;;;4916420;29;20051;-73
2023/11/17 00:03:50;;;;;;;7.78;4.78;;;5.00;99.90;;;;;;4916372;29;20407;-73
2023/11/17 00:06:15;;;;;;;9.07;4.90;;;4.90;99.90;;;;;;4914615;29;20047;-74
2023/11/17 00:08:41;;;;;;;6.47;4.43;;;4.90;99.90;;;;;;4916456;29;20103;-73
2023/11/17 00:11:06;;;;;;;6.78;4.75;;;5.00;99.90;;;;;;4916192;29;20076;-73
2023/11/17 00:13:32;;;;;;;8.02;4.72;;;4.90;99.90;;;;;;4916213;29;20036;-73
2023/11/17 00:15:58;;;;;;;7.63;5.00;;;4.90;99.90;;;;;;4914592;29;20500;-73
2023/11/17 00:18:23;;;;;;;8.27;5.03;;;4.90;99.90;;;;;;4915299;29;20036;-73
2023/11/17 00:20:49;;;;;;;7.50;5.03;;;4.80;99.90;;;;;;4914606;29;20052;-73
2023/11/17 00:23:14;;;;;;;7.35;4.63;;;4.80;99.90;;;;;;4916003;29;20411;-73
2023/11/17 00:25:40;;;;;;;6.65;5.50;;;4.80;99.90;;;;;;4914403;29;20040;-73
2023/11/17 00:28:07;;;;;;;8.07;5.40;;;4.80;99.90;;;;;;4914748;29;20040;-73
2023/11/17 00:30:32;;;;;;;6.55;4.90;;;4.80;99.90;;;;;;4914886;29;20047;-73
2023/11/17 00:32:58;;;;;;;6.72;5.22;;;4.70;99.90;;;;;;4915954;29;20514;-74
2023/11/17 00:35:24;;;;;;;6.40;4.97;;;4.70;99.90;;;;;;4915521;29;20040;-73
2023/11/17 00:37:51;;;;;;;7.75;4.50;;;4.70;99.90;;;;;;4915829;29;20048;-73
2023/11/17 00:40:17;;;;;;;6.57;4.40;;;4.70;99.90;;;;;;4914447;29;20044;-73
2023/11/17 00:42:43;;;;;;;6.97;5.10;;;4.60;99.90;;;;;;4930615;29;20403;-73
2023/11/17 00:45:09;;;;;;;9.77;5.00;;;4.60;99.90;;;;;;4915449;29;20036;-73
2023/11/17 00:47:35;;;;;;;7.47;4.35;;;4.60;99.90;;;;;;4915800;29;20070;-73
2023/11/17 00:50:01;;;;;;;6.85;4.95;;;4.60;99.90;;;;;;4914281;29;20101;-74
2023/11/17 00:52:27;;;;;;;6.63;4.13;;;4.60;99.90;;;;;;4915576;29;20036;-73
2023/11/17 00:54:55;;;;;;;5.47;4.20;;;4.60;99.90;;;;;;4915457;29;20408;-74
2023/11/17 00:57:21;;;;;;;5.30;4.15;;;4.60;99.90;;;;;;4915703;29;20050;-73
2023/11/17 00:59:47;;;;;;;5.57;3.83;;;4.60;99.90;;;;;;4914152;29;20119;-73
2023/11/17 01:02:15;;;;;;;7.60;4.03;;;4.60;99.90;;;;;;4927858;29;20099;-73
2023/11/17 01:04:42;;;;;;;7.35;4.32;;;4.50;99.90;;;;;;4932883;29;20079;-73
2023/11/17 01:07:07;;;;;;;6.63;4.43;;;4.60;99.90;;;;;;4933178;29;20040;-73
2023/11/17 01:09:33;;;;;;;6.65;5.25;;;4.60;99.90;;;;;;4933317;29;20123;-73
2023/11/17 01:11:59;;;;;;;9.07;5.18;;;4.60;99.90;;;;;;4933163;29;20043;-73
2023/11/17 01:14:24;;;;;;;5.85;4.53;;;4.60;99.90;;;;;;4933185;29;20423;-73
2023/11/17 01:16:50;;;;;;;5.45;4.80;;;4.60;99.90;;;;;;4933129;29;20075;-73
2023/11/17 01:19:15;;;;;;;6.65;4.68;;;4.60;99.90;;;;;;4974980;23;20050;-77
2023/11/17 01:21:41;;;;;;;5.53;4.55;;;4.60;99.90;;;;;;5011878;28;20048;-78
2023/11/17 01:24:07;;;;;;;7.18;4.95;;;4.60;99.90;;;;;;5009930;28;20038;-78
2023/11/17 01:26:32;;;;;;;10.65;4.65;;;4.50;99.90;;;;;;5010223;28;20065;-78
2023/11/17 01:28:59;;;;;;;10.88;5.40;;;4.60;99.90;;;;;;5011533;28;20037;-78
2023/11/17 01:31:25;;;;;;;8.32;4.90;;;4.60;99.90;;;;;;5015594;28;20076;-78
2023/11/17 01:33:51;;;;;;;9.32;5.43;;;4.50;99.90;;;;;;5014397;28;20115;-78
2023/11/17 01:36:20;;;;;;;8.77;5.40;;;4.60;99.90;;;;;;5014169;28;20497;-78
2023/11/17 01:38:46;;;;;;;7.22;5.22;;;4.60;99.90;;;;;;5014417;28;20055;-78
2023/11/17 01:41:12;;;;;;;7.85;4.60;;;4.60;99.90;;;;;;5014142;28;20100;-78
2023/11/17 01:43:38;;;;;;;6.43;4.88;;;4.60;99.90;;;;;;5013959;28;20413;-78
2023/11/17 01:46:05;;;;;;;7.82;4.97;;;4.60;99.90;;;;;;5013746;28;20051;-78
2023/11/17 01:48:34;;;;;;;6.28;4.95;;;4.60;99.90;;;;;;5014303;28;20034;-78
2023/11/17 01:51:01;;;;;;;7.35;4.88;;;4.60;99.90;;;;;;5013921;28;20124;-78
2023/11/17 01:53:27;;;;;;;8.65;5.70;;;4.60;99.90;;;;;;5015224;28;20060;-78
2023/11/17 01:55:53;;;;;;;9.48;5.30;;;4.70;99.90;;;;;;5014992;28;20061;-78
2023/11/17 01:58:20;;;;;;;6.70;4.72;;;4.60;99.90;;;;;;5015163;28;20520;-78
2023/11/17 02:00:46;;;;;;;5.80;4.25;;;4.70;99.90;;;;;;5013764;28;20085;-78
2023/11/17 02:03:12;;;;;;;8.20;5.80;;;4.70;99.90;;;;;;4997509;28;20069;-79
2023/11/17 02:05:38;;;;;;;6.93;5.22;;;4.70;99.90;;;;;;4997496;28;20048;-78
2023/11/17 02:08:39;;;;;;;7.93;4.95;;;4.60;99.90;;;;;;5013814;28;20038;-78
2023/11/17 02:11:24;;;;;;;4.93;4.32;;;4.60;99.90;;;;;;5013802;28;20049;-78
2023/11/17 02:13:58;;;;;;;8.75;5.00;;;4.50;99.90;;;;;;4997401;28;20041;-78
2023/11/17 02:16:24;;;;;;;8.07;5.10;;;4.50;99.90;;;;;;5013582;28;20050;-77
2023/11/17 02:18:54;;;;;;;8.80;4.95;;;4.60;99.90;;;;;;5013826;28;20407;-78
2023/11/17 02:21:31;;;;;;;6.13;4.50;;;4.60;99.90;;;;;;5013534;28;20057;-78
2023/11/17 02:24:00;;;;;;;6.63;4.65;;;4.50;99.90;;;;;;5015636;28;20034;-78
2023/11/17 02:26:42;;;;;;;8.13;5.00;;;4.50;99.90;;;;;;5013131;28;20061;-78
2023/11/17 02:29:37;;;;;;;6.68;4.20;;;4.40;99.90;;;;;;5014699;28;20188;-77
2023/11/17 02:32:04;;;;;;;9.85;4.95;;;4.40;99.90;;;;;;5013597;28;20412;-78
2023/11/17 02:34:33;;;;;;;9.05;4.75;;;4.50;99.90;;;;;;5013271;28;20096;-78
2023/11/17 02:36:59;;;;;;;6.25;4.40;;;4.40;99.90;;;;;;5013087;28;20038;-78
2023/11/17 02:39:25;;;;;;;9.15;4.47;;;4.40;99.90;;;;;;5013290;28;20052;-78
2023/11/17 02:41:58;;;;;;;6.03;4.50;;;4.40;99.90;;;;;;5013359;28;20088;-78
2023/11/17 02:44:28;;;;;;;10.23;4.68;;;4.40;99.90;;;;;;5014359;28;20044;-78
2023/11/17 02:47:03;;;;;;;7.10;4.70;;;4.40;99.90;;;;;;4996490;28;20066;-78
2023/11/17 02:49:42;;;;;;;7.53;4.88;;;4.50;99.90;;;;;;5012931;28;20046;-78
2023/11/17 02:52:26;;;;;;;11.23;5.05;;;4.50;99.90;;;;;;5013307;28;20041;-78
2023/11/17 02:54:53;;;;;;;7.63;4.53;;;4.60;99.90;;;;;;5012886;28;20245;-78
2023/11/17 02:57:23;;;;;;;8.23;6.00;;;4.60;99.90;;;;;;5013023;28;20052;-78
2023/11/17 02:59:49;;;;;;;7.63;5.25;;;4.70;99.90;;;;;;5013986;28;20069;-78
2023/11/17 03:02:15;;;;;;;11.38;5.32;;;4.70;99.90;;;;;;5012900;28;20081;-79
2023/11/17 03:04:42;;;;;;;9.52;5.30;;;4.80;99.90;;;;;;4996113;28;20034;-78
2023/11/17 03:07:08;;;;;;;7.45;5.22;;;4.90;99.90;;;;;;5012566;28;20113;-78
2023/11/17 03:09:34;;;;;;;6.95;5.43;;;4.90;99.90;;;;;;5012527;28;20053;-78
2023/11/17 03:12:00;;;;;;;9.10;5.13;;;5.00;99.90;;;;;;5012581;28;20483;-78
2023/11/17 03:14:27;;;;;;;7.72;5.03;;;5.10;99.90;;;;;;5012732;28;20132;-78
2023/11/17 03:17:01;;;;;;;9.52;5.93;;;5.00;99.90;;;;;;5012514;28;20041;-78
2023/11/17 03:19:28;;;;;;;;;;;5.10;99.90;;;;;;5013933;28;20579;-78
2023/11/17 03:21:57;;;;;;;8.10;5.07;;;5.20;99.90;;;;;;5013594;28;19921;-78
2023/11/17 03:24:24;;;;;;;7.50;5.03;;;5.20;99.90;;;;;;5012388;28;20513;-78
2023/11/17 03:26:54;;;;;;;10.90;5.85;;;5.10;99.90;;;;;;5012161;28;20030;-77
2023/11/17 03:29:21;;;;;;;7.65;5.63;;;5.00;99.90;;;;;;5012602;28;20045;-78
2023/11/17 03:31:49;;;;;;;8.80;5.25;;;5.10;99.90;;;;;;5012402;28;20042;-78
2023/11/17 03:34:15;;;;;;;7.38;4.93;;;5.20;99.90;;;;;;5013344;28;20497;-78
2023/11/17 03:36:41;;;;;;;8.30;4.93;;;5.10;99.90;;;;;;5012150;28;20046;-79
2023/11/17 03:39:12;;;;;;;6.82;4.32;;;5.10;99.90;;;;;;5012003;28;20037;-78
2023/11/17 03:41:38;;;;;;;8.18;5.18;;;5.10;99.90;;;;;;5011977;28;20053;-78
2023/11/17 03:44:06;;;;;;;7.97;4.53;;;5.20;99.90;;;;;;5011963;28;20038;-78
2023/11/17 03:46:32;;;;;;;6.13;4.35;;;5.10;99.90;;;;;;5012782;28;20140;-78
2023/11/17 03:48:57;;;;;;;11.15;4.88;;;5.10;99.90;;;;;;5012061;28;20069;-78
2023/11/17 03:51:23;;;;;;;7.00;4.40;;;5.20;99.90;;;;;;4995332;28;20050;-79
2023/11/17 03:53:48;;;;;;;7.25;5.10;;;5.10;99.90;;;;;;5012256;28;20048;-78
2023/11/17 03:56:15;;;;;;;6.88;4.97;;;5.20;99.90;;;;;;5011488;28;20033;-78
2023/11/17 03:58:40;;;;;;;7.63;4.97;;;5.10;99.90;;;;;;5011638;28;20042;-78
2023/11/17 04:01:06;;;;;;;7.43;5.57;;;5.20;99.90;;;;;;5011650;28;20088;-78
2023/11/17 04:03:32;;;;;;;8.30;4.60;;;5.10;99.90;;;;;;5011611;28;20038;-78
2023/11/17 04:05:57;;;;;;;7.97;5.22;;;5.20;99.90;;;;;;5012770;28;20060;-78
2023/11/17 04:08:23;;;;;;;7.85;5.10;;;5.10;99.90;;;;;;5012936;28;20041;-78
2023/11/17 04:10:48;;;;;;;8.27;5.18;;;5.20;99.90;;;;;;5011632;28;20048;-78
2023/11/17 04:13:14;;;;;;;9.45;5.82;;;5.20;99.90;;;;;;5011423;28;20042;-78
2023/11/17 04:15:40;;;;;;;7.32;4.63;;;5.20;99.90;;;;;;5012352;28;20588;-78
2023/11/17 04:18:06;;;;;;;10.77;5.55;;;5.10;99.90;;;;;;5011487;28;20042;-78
2023/11/17 04:20:31;;;;;;;14.35;5.05;;;5.20;99.90;;;;;;5011266;28;20072;-79
2023/11/17 04:22:57;;;;;;;7.57;5.05;;;5.10;99.90;;;;;;5011266;28;20045;-78
2023/11/17 04:25:23;;;;;;;6.97;5.20;;;5.20;99.90;;;;;;5012287;28;20459;-78
2023/11/17 04:27:49;;;;;;;5.95;5.00;;;5.10;99.90;;;;;;5011196;28;20044;-78
2023/11/17 04:30:17;;;;;;;8.10;5.20;;;5.00;99.90;;;;;;5012204;28;20037;-78
2023/11/17 04:32:43;;;;;;;8.52;5.53;;;5.10;99.90;;;;;;5012533;28;20049;-78
2023/11/17 04:35:11;;;;;;;7.32;5.40;;;5.10;99.90;;;;;;5011098;28;20128;-77
2023/11/17 04:37:38;;;;;;;7.25;5.30;;;5.10;99.90;;;;;;5012467;28;20046;-78
2023/11/17 04:40:05;;;;;;;9.25;6.03;;;5.10;99.90;;;;;;5011075;28;20052;-78
2023/11/17 04:42:31;;;;;;;15.73;6.25;;;5.00;99.90;;;;;;5012312;28;20113;-78
2023/11/17 04:44:57;;;;;;;8.25;5.95;;;5.00;99.90;;;;;;5010821;28;20041;-78
2023/11/17 04:47:23;;;;;;;9.82;5.75;;;5.00;99.90;;;;;;5011169;28;20096;-78
2023/11/17 04:49:48;;;;;;;9.32;6.03;;;4.90;99.90;;;;;;5010841;28;20145;-78
2023/11/17 04:52:14;;;;;;;9.00;6.30;;;4.90;99.90;;;;;;5010924;28;20092;-79
2023/11/17 04:54:40;;;;;;;8.15;5.78;;;4.90;99.90;;;;;;5011938;28;20038;-78
2023/11/17 04:57:08;;;;;;;13.10;7.13;;;4.90;99.90;;;;;;5010741;28;20042;-78
2023/11/17 04:59:34;;;;;;;10.55;6.40;;;4.90;99.90;;;;;;4994244;28;20042;-79
2023/11/17 05:01:59;;;;;;;10.75;6.55;;;4.80;99.90;;;;;;5003603;28;20053;-78
2023/11/17 05:04:25;;;;;;;8.73;6.30;;;4.80;99.90;;;;;;4974500;28;20038;-78
2023/11/17 05:06:51;;;;;;;9.88;6.78;;;4.90;99.90;;;;;;4991023;28;20038;-78
2023/11/17 05:09:17;;;;;;;10.25;7.13;;;4.80;99.90;;;;;;4990987;28;20047;-78
2023/11/17 05:11:42;;;;;;;11.63;6.57;;;4.80;99.90;;;;;;4991167;28;20098;-78
2023/11/17 05:14:08;;;;;;;14.52;7.68;;;4.80;99.90;;;;;;4991157;28;20046;-78
2023/11/17 05:16:37;;;;;;;9.85;6.18;;;4.80;99.90;;;;;;4991032;28;20041;-78
2023/11/17 05:19:06;;;;;;;9.65;6.85;;;4.80;99.90;;;;;;4990814;28;20054;-78
2023/11/17 05:21:32;;;;;;;10.10;7.65;;;4.80;99.90;;;;;;4992204;28;20520;-78
2023/11/17 05:23:59;;;;;;;10.82;7.32;;;4.70;99.90;;;;;;4992183;28;20038;-78
2023/11/17 05:26:25;;;;;;;10.70;6.63;;;4.70;99.90;;;;;;4990649;28;20049;-78
2023/11/17 05:28:51;;;;;;;9.45;6.72;;;4.80;99.90;;;;;;4990701;28;20046;-78
2023/11/17 05:31:18;;;;;;;9.95;7.13;;;4.70;99.90;;;;;;4990825;28;20034;-79
2023/11/17 05:33:44;;;;;;;12.75;6.75;;;4.80;99.90;;;;;;4991062;28;20042;-77
2023/11/17 05:36:10;;;;;;;12.68;7.13;;;4.70;99.90;;;;;;4991918;28;20050;-78
2023/11/17 05:38:37;;;;;;;10.43;7.88;;;4.70;99.90;;;;;;4974657;28;20114;-78
2023/11/17 05:41:03;;;;;;;12.60;7.13;;;4.70;99.90;;;;;;4990776;28;20068;-78
2023/11/17 05:43:28;;;;;;;11.07;7.13;;;4.60;99.90;;;;;;4990931;28;20038;-79
2023/11/17 05:45:55;;;;;;;9.77;7.53;;;4.60;99.90;;;;;;4990468;28;20541;-78
2023/11/17 05:48:21;;;;;;;12.80;7.57;;;4.50;99.90;;;;;;4991960;28;20501;-78
2023/11/17 05:50:46;;;;;;;10.07;7.38;;;4.60;99.90;;;;;;4991965;28;20038;-77
2023/11/17 05:53:12;;;;;;;10.52;6.78;;;4.50;99.90;;;;;;4990741;28;20049;-78
2023/11/17 05:55:38;;;;;;;9.68;7.38;;;4.60;99.90;;;;;;4990418;28;20039;-78
2023/11/17 05:58:04;;;;;;;9.63;7.20;;;4.60;99.90;;;;;;4996501;28;20420;-77
2023/11/17 06:00:31;;;;;;;10.05;7.03;;;4.50;99.90;;;;;;5011072;28;20149;-78
2023/11/17 06:02:56;;;;;;;11.85;8.00;;;4.60;99.90;;;;;;5002213;28;20041;-78
2023/11/17 06:05:22;;;;;;;12.80;7.95;;;4.60;99.90;;;;;;5011207;28;20037;-78
2023/11/17 06:07:48;;;;;;;12.15;7.90;;;4.60;99.90;;;;;;5010146;28;20046;-78
2023/11/17 06:10:14;;;;;;;11.10;8.00;;;4.50;99.90;;;;;;5009979;28;20034;-78
2023/11/17 06:12:40;;;;;;;14.07;8.65;;;4.50;99.90;;;;;;5010247;28;20049;-78
2023/11/17 06:15:06;;;;;;;15.40;9.10;;;4.60;99.90;;;;;;5009653;28;20137;-78
2023/11/17 06:17:32;;;;;;;12.73;8.88;;;4.60;99.90;;;;;;5013279;28;20416;-78
2023/11/17 06:20:00;;;;;;;11.38;8.07;;;4.50;99.90;;;;;;5013512;28;20037;-78
2023/11/17 06:22:27;;;;;;;13.77;8.38;;;4.50;99.90;;;;;;5013436;28;20509;-78
2023/11/17 06:24:53;;;;;;;11.23;8.07;;;4.50;99.90;;;;;;5013392;28;20057;-78
2023/11/17 06:27:19;;;;;;;11.15;7.93;;;4.50;99.90;;;;;;5014610;28;20041;-78
2023/11/17 06:29:45;;;;;;;13.85;8.77;;;4.50;99.90;;;;;;5014759;28;20046;-78
2023/11/17 06:32:11;;;;;;;14.90;8.88;;;4.40;99.90;;;;;;5013626;28;20519;-78
2023/11/17 06:34:38;;;;;;;14.38;8.93;;;4.50;99.90;;;;;;5013271;28;20575;-78
2023/11/17 06:37:05;;;;;;;14.15;8.43;;;4.50;99.90;;;;;;5013173;28;20041;-78
2023/11/17 06:39:31;;;;;;;13.55;8.52;;;4.40;99.90;;;;;;5012835;28;20100;-78
2023/11/17 06:41:57;;;;;;;13.05;8.77;;;4.30;99.90;;;;;;5012916;28;20056;-78
2023/11/17 06:44:25;;;;;;;10.15;7.05;;;4.40;99.90;;;;;;5013065;28;20116;-77
2023/11/17 06:46:52;;;;;;;12.35;8.25;;;4.40;99.90;;;;;;4996389;28;20121;-78
2023/11/17 06:49:19;;;;;;;11.68;8.23;;;4.30;99.90;;;;;;5013214;28;20092;-77
2023/11/17 06:51:51;;;;;;;12.02;7.88;;;4.30;99.90;;;;;;5013016;28;20120;-78
2023/11/17 06:54:21;;;;;;;16.02;9.52;;;4.30;99.90;;;;;;5012834;28;20493;-78
2023/11/17 06:56:47;;;;;;;12.68;8.88;;;4.20;99.90;;;;;;5012750;28;20564;-77
2023/11/17 06:59:18;;;;;;;13.18;8.80;;;4.30;99.90;;;;;;5014036;28;20056;-78
2023/11/17 07:01:46;;;;;;;13.60;8.77;;;4.30;99.90;;;;;;5012564;28;20056;-77
2023/11/17 07:04:12;;;;;;;13.60;9.43;;;4.30;99.90;;;;;;5013868;28;20046;-79
2023/11/17 07:06:39;;;;;;;13.73;9.95;;;4.40;99.90;;;;;;5013398;28;20036;-78
2023/11/17 07:09:19;;;;;;;15.45;9.18;;;4.40;99.90;;;;;;5013861;28;20124;-78
2023/11/17 07:11:59;;;;;;;12.50;8.73;;;4.30;99.90;;;;;;5012498;28;20040;-78
2023/11/17 07:14:25;;;;;;;12.85;9.43;;;4.30;99.90;;;;;;5012753;28;20068;-78
2023/11/17 07:16:52;;;;;;;15.27;9.43;;;4.30;99.90;;;;;;5012183;28;20034;-78
2023/11/17 07:19:19;;;;;;;11.13;8.50;;;4.30;99.90;;;;;;5035259;23;20354;-74
2023/11/17 07:21:47;;;;;;;12.70;9.05;;;4.30;99.90;;;;;;5013573;28;20042;-73
2023/11/17 07:24:14;;;;;;;12.88;8.02;;;4.20;99.90;;;;;;5011746;28;20045;-74
2023/11/17 07:26:40;;;;;;;16.65;9.63;;;4.40;99.90;;;;;;5012832;28;20390;-73
2023/11/17 07:29:06;;;;;;;15.23;9.57;;;4.30;99.90;;;;;;4995776;28;20125;-73
2023/11/17 07:31:37;;;;;;;16.23;9.43;;;4.30;99.90;;;;;;5012064;28;20042;-74
2023/11/17 07:34:07;;;;;;;12.18;8.75;;;4.40;99.90;;;;;;5013496;28;20042;-74
2023/11/17 07:36:39;;;;;;;14.15;9.68;;;4.30;99.90;;;;;;4995439;28;20042;-74
2023/11/17 07:39:06;;;;;;;14.38;9.00;;;4.40;99.90;;;;;;5011916;28;20460;-74
2023/11/17 07:41:33;;;;;;;16.60;9.35;;;4.50;99.90;;;;;;5011901;28;20057;-74
2023/11/17 07:44:01;;;;;;;14.60;9.27;;;4.50;99.90;;;;;;5011989;28;20049;-75
2023/11/17 07:46:27;;;;;;;15.50;9.18;;;4.60;99.90;;;;;;5011908;28;20065;-75
2023/11/17 07:48:53;;;;;;;13.23;9.38;;;4.50;99.90;;;;;;5013382;28;20038;-75
2023/11/17 07:51:19;;;;;;;20.00;11.48;;;4.60;99.90;;;;;;5013111;28;20627;-75
2023/11/17 07:53:45;;;;;;;19.48;10.05;;;4.80;99.90;;;;;;5011885;28;20136;-74
2023/11/17 07:56:11;;;;;;;14.02;9.80;;;4.90;99.90;;;;;;5012847;28;20042;-74
2023/11/17 07:58:37;;;;;;;15.60;10.10;;;5.00;99.90;;;;;;5012949;28;20057;-75
2023/11/17 08:01:09;;;;;;;14.52;10.20;;;5.30;99.90;;;;;;5011474;28;20056;-75
2023/11/17 08:03:38;;;;;;;15.30;10.50;;;5.20;99.90;;;;;;5013169;28;20042;-74
2023/11/17 08:06:04;;;;;;;18.13;11.85;;;5.40;99.90;;;;;;5012671;28;20041;-74
2023/11/17 08:08:31;;;;;;;16.65;10.85;;;5.30;99.90;;;;;;5012876;28;20030;-75
2023/11/17 08:10:57;;;;;;;17.40;10.88;;;5.50;99.90;;;;;;5011381;28;20042;-74
2023/11/17 08:13:23;;;;;;;19.73;10.75;;;5.50;99.90;;;;;;5012657;28;20689;-75
2023/11/17 08:15:49;;;;;;;17.23;11.00;;;5.60;99.90;;;;;;5012657;28;20081;-75
2023/11/17 08:18:20;;;;;;;18.75;11.57;;;5.60;99.90;;;;;;4994998;28;20121;-75
2023/11/17 08:20:47;;;;;;;19.20;12.05;;;5.60;99.90;;;;;;5012557;28;20042;-75
2023/11/17 08:23:14;;;;;;;18.88;10.95;;;5.60;99.90;;;;;;5011366;28;20121;-75
2023/11/17 08:25:39;;;;;;;20.15;11.48;;;5.50;99.90;;;;;;4994768;28;20068;-75
2023/11/17 08:28:06;;;;;;;20.27;11.75;;;5.50;99.90;;;;;;5011596;28;20378;-76
2023/11/17 08:30:33;;;;;;;17.70;11.10;;;5.60;99.90;;;;;;5012596;28;20116;-74
2023/11/17 08:32:59;;;;;;;20.95;11.95;;;5.50;99.90;;;;;;5012576;28;20054;-74
2023/11/17 08:35:24;;;;;;;17.10;10.13;;;5.70;99.90;;;;;;5010795;28;20412;-75
2023/11/17 08:37:52;;;;;;;17.90;11.38;;;5.70;99.90;;;;;;5012027;28;20038;-74
2023/11/17 08:40:18;;;;;;;19.75;10.13;;;5.60;99.90;;;;;;5010416;28;20042;-74
2023/11/17 08:42:46;;;;;;;15.25;10.02;;;5.50;99.90;;;;;;5011037;28;20041;-74
2023/11/17 08:45:12;;;;;;;18.02;10.93;;;5.60;99.90;;;;;;5012091;28;20057;-75
2023/11/17 08:47:39;;;;;;;17.02;10.35;;;5.50;99.90;;;;;;5011626;28;20093;-75
2023/11/17 08:50:10;;;;;;;19.48;11.95;;;5.60;99.90;;;;;;5010819;28;20033;-74
2023/11/17 08:52:37;;;;;;;22.08;12.32;;;5.50;99.90;;;;;;5011144;28;20041;-74
2023/11/17 08:55:07;;;;;;;19.77;12.27;;;5.60;99.90;;;;;;4994356;28;20191;-74
2023/11/17 08:57:36;;;;;;;17.50;11.07;;;5.60;99.90;;;;;;5011628;28;20042;-74
2023/11/17 09:00:12;;;;;;;20.60;11.88;;;5.60;99.90;;;;;;5011669;28;20524;-74
2023/11/17 09:02:46;;;;;;;18.88;11.93;;;5.60;99.90;;;;;;5010787;28;20037;-74
2023/11/17 09:05:13;;;;;;;19.98;12.00;;;5.60;99.90;;;;;;5010508;28;20042;-74
2023/11/17 09:07:48;;;;;;;17.63;11.90;;;5.80;99.90;;;;;;5012114;28;20042;-73
2023/11/17 09:10:15;;;;;;;21.13;12.63;;;5.80;99.90;;;;;;5012054;28;20041;-75
2023/11/17 09:12:42;;;;;;;18.25;11.45;;;5.70;99.90;;;;;;5012009;28;20078;-75
2023/11/17 09:15:12;;;;;;;18.30;12.02;;;5.80;99.90;;;;;;5010478;28;20038;-75
2023/11/17 09:17:40;;;;;;;19.05;11.35;;;5.80;99.90;;;;;;5011857;28;20037;-74
2023/11/17 09:20:09;;;;;;;19.20;11.55;;;5.90;99.90;;;;;;5011464;28;20057;-74
2023/11/17 09:22:35;;;;;;;18.77;11.55;;;5.80;99.90;;;;;;5011679;28;20042;-74
2023/11/17 09:25:03;;;;;;;17.45;10.93;;;6.00;99.90;;;;;;4993840;28;20041;-74
2023/11/17 09:27:28;;;;;;;19.65;13.05;;;6.10;99.90;;;;;;5010485;28;20386;-74
2023/11/17 09:29:54;;;;;;;23.38;13.63;;;6.20;99.90;;;;;;5010679;28;20145;-74
2023/11/17 09:32:20;;;;;;;20.25;12.38;;;6.10;99.90;;;;;;5010653;28;20132;-75
2023/11/17 09:34:45;;;;;;;24.10;12.98;;;6.30;99.90;;;;;;5010128;28;20517;-74
2023/11/17 09:37:11;;;;;;;20.38;11.85;;;6.30;99.90;;;;;;5010351;28;20077;-74
2023/11/17 09:39:38;;;;;;;20.80;13.43;;;6.30;99.90;;;;;;5010349;28;20046;-74
2023/11/17 09:42:07;;;;;;;18.98;11.55;;;6.20;99.90;;;;;;5010384;28;20057;-75
2023/11/17 09:44:38;;;;;;;19.38;11.85;;;6.30;99.90;;;;;;5009677;28;20108;-74
2023/11/17 09:47:19;;;;;;;19.55;12.40;;;6.30;99.90;;;;;;4991100;28;20085;-74
2023/11/17 09:49:47;;;;;;;20.75;12.00;;;6.50;99.90;;;;;;5005605;28;20030;-75
2023/11/17 09:52:15;;;;;;;17.63;11.50;;;6.40;99.90;;;;;;5014743;28;20038;-74
2023/11/17 09:54:43;;;;;;;16.67;10.48;;;6.40;99.90;;;;;;5014489;28;20042;-74
2023/11/17 09:57:11;;;;;;;23.85;11.18;;;6.50;99.90;;;;;;5014976;28;20046;-74
2023/11/17 09:59:42;;;;;;;15.85;11.07;;;6.60;99.90;;;;;;5007673;28;20461;-74
2023/11/17 10:02:10;;;;;;;16.88;10.25;;;6.70;99.90;;;;;;5004095;28;20038;-73
2023/11/17 10:04:37;;;;;;;19.52;11.82;;;6.60;99.90;;;;;;5005596;28;20049;-74
2023/11/17 10:07:05;;;;;;;19.70;11.27;;;6.80;99.90;;;;;;5004057;28;20030;-75
2023/11/17 10:09:32;;;;;;;17.33;11.43;;;6.70;99.90;;;;;;5013997;28;20448;-74
2023/11/17 10:11:59;;;;;;;20.60;11.80;;;6.70;99.90;;;;;;5009874;28;20038;-74
2023/11/17 10:14:27;;;;;;;22.45;11.82;;;6.80;99.90;;;;;;5013979;28;20386;-74
2023/11/17 10:16:55;;;;;;;18.35;11.55;;;6.80;99.90;;;;;;5013617;28;20437;-75
2023/11/17 10:19:23;;;;;;;16.60;9.77;;;6.80;99.90;;;;;;5013373;28;20046;-74
2023/11/17 10:21:49;;;;;;;16.42;11.07;;;6.90;99.90;;;;;;5009490;28;20041;-73
2023/11/17 10:24:16;;;;;;;20.33;11.88;;;7.00;99.90;;;;;;5003318;28;20142;-74
2023/11/17 10:26:42;;;;;;;18.45;11.48;;;7.10;99.90;;;;;;4998899;28;20054;-74
2023/11/17 10:29:09;;;;;;;21.02;11.00;;;7.00;99.90;;;;;;5010972;28;20030;-73
2023/11/17 10:31:40;;;;;;;19.05;10.75;;;7.10;99.90;;;;;;5013256;28;20042;-71
2023/11/17 10:34:16;;;;;;;17.92;10.25;;;7.20;99.90;;;;;;5013676;28;20473;-72
2023/11/17 10:36:59;;;;;;;21.80;11.27;;;7.30;99.90;;;;;;5013178;28;20050;-72
2023/11/17 10:39:25;;;;;;;17.65;10.68;;;7.30;99.90;;;;;;5013148;28;20471;-72
2023/11/17 10:41:52;;;;;;;18.83;9.98;;;7.40;99.90;;;;;;5013139;28;20053;-72
2023/11/17 10:44:33;;;;;;;20.90;9.50;;;7.40;99.90;;;;;;5046263;28;20134;-72
2023/11/17 10:47:04;;;;;;;16.65;10.65;;;7.40;99.90;;;;;;5002796;28;20041;-72
2023/11/17 10:49:32;;;;;;;14.50;9.40;;;7.30;99.90;;;;;;4999289;28;20034;-72
2023/11/17 10:51:57;;;;;;;16.70;10.05;;;7.30;99.90;;;;;;4993360;28;20498;-73
2023/11/17 10:54:23;;;;;;;16.02;10.25;;;7.30;99.90;;;;;;4993623;28;20042;-73
2023/11/17 10:56:52;;;;;;;15.25;10.32;;;7.30;99.90;;;;;;4998601;28;20054;-71
2023/11/17 10:59:20;;;;;;;17.33;8.98;;;7.30;99.90;;;;;;5037479;28;20037;-72
2023/11/17 11:01:47;;;;;;;12.85;8.68;;;7.30;99.90;;;;;;5011328;28;20042;-71
2023/11/17 11:04:24;;;;;;;14.32;8.90;;;7.30;99.90;;;;;;5012233;28;20041;-72
2023/11/17 11:06:54;;;;;;;15.23;9.25;;;7.40;99.90;;;;;;5011984;28;20099;-72
2023/11/17 11:09:38;;;;;;;17.17;9.88;;;7.40;99.90;;;;;;4992993;28;20038;-73
2023/11/17 11:12:12;;;;;;;17.33;8.63;;;7.50;99.90;;;;;;4993983;28;20410;-74
2023/11/17 11:14:41;;;;;;;15.63;9.75;;;7.60;99.90;;;;;;4993089;28;20054;-74
2023/11/17 11:17:11;;;;;;;14.68;8.95;;;7.60;99.90;;;;;;4993099;28;20090;-73
2023/11/17 11:19:38;;;;;;;12.23;8.32;;;7.70;99.90;;;;;;4992552;28;20081;-74
2023/11/17 11:22:07;;;;;;;13.38;8.70;;;7.80;99.90;;;;;;4992773;28;20043;-73
2023/11/17 11:24:36;;;;;;;12.60;8.70;;;7.90;99.90;;;;;;4992711;28;20038;-73
2023/11/17 11:27:05;;;;;;;15.38;8.93;;;8.10;99.90;;;;;;4992540;28;20528;-74
2023/11/17 11:29:31;;;;;;;15.18;8.63;;;8.20;99.90;;;;;;4992267;28;20054;-73
2023/11/17 11:31:57;;;;;;;18.10;9.55;;;8.50;99.90;;;;;;4998653;28;20040;-74
2023/11/17 11:34:25;;;;;;;14.40;9.43;;;8.60;99.90;;;;;;4983326;28;20049;-74
2023/11/17 11:36:51;;;;;;;16.58;8.73;;;8.60;99.90;;;;;;4993651;28;20088;-74
2023/11/17 11:39:16;;;;;;;14.10;8.30;;;8.70;99.90;;;;;;4992413;28;20046;-74
2023/11/17 11:41:42;;;;;;;15.25;8.30;;;8.80;99.90;;;;;;4992333;28;20395;-73
2023/11/17 11:44:09;;;;;;;13.55;7.85;;;8.80;99.90;;;;;;4993456;28;20034;-74
2023/11/17 11:46:37;;;;;;;12.27;7.50;;;8.90;99.90;;;;;;4992937;28;20498;-74
2023/11/17 11:49:11;;;;;;;11.82;7.15;;;8.90;99.90;;;;;;4992087;28;20386;-74
2023/11/17 11:52:01;;;;;;;11.30;6.65;;;9.00;99.90;;;;;;4991951;28;20152;-74
2023/11/17 11:54:27;;;;;;;11.05;6.65;;;9.00;99.90;;;;;;4992228;28;20053;-74
2023/11/17 11:56:55;;;;;;;8.90;5.97;;;9.10;99.90;;;;;;4991919;28;20030;-74
2023/11/17 11:59:21;;;;;;;9.90;5.80;;;9.10;99.90;;;;;;4993464;28;20038;-78
2023/11/17 12:01:47;;;;;;;11.10;5.90;;;9.40;99.90;;;;;;4992193;28;20054;-75
2023/11/17 12:04:13;;;;;;;7.72;5.13;;;9.50;99.90;;;;;;4992700;28;20049;-77
2023/11/17 12:06:44;;;;;;;9.40;5.40;;;9.60;99.90;;;;;;4993045;28;20042;-79
2023/11/17 12:09:16;;;;;;;6.32;4.68;;;9.70;99.90;;;;;;4994518;28;20042;-78
2023/11/17 12:11:51;;;;;;;5.93;4.53;;;9.80;99.90;;;;;;4994808;28;20115;-77
2023/11/17 12:14:23;;;;;;;8.85;4.88;;;9.80;99.90;;;;;;4993780;28;20053;-78
2023/11/17 12:16:51;;;;;;;6.10;3.70;;;9.80;99.90;;;;;;4993517;28;20129;-77
2023/11/17 12:19:16;;;;;;;6.65;4.97;;;9.90;99.90;;;;;;4996459;28;20669;-78
2023/11/17 12:21:48;;;;;;;9.27;6.70;;;10.00;99.90;;;;;;4993317;28;20054;-77
2023/11/17 12:24:22;;;;;;;9.95;6.00;;;9.90;99.90;;;;;;4976622;28;20039;-77
2023/11/17 12:26:50;;;;;;;10.30;6.43;;;10.00;99.90;;;;;;4975800;28;20401;-77
2023/11/17 12:29:31;;;;;;;9.25;5.60;;;10.00;99.90;;;;;;4992439;28;20042;-78
2023/11/17 12:31:59;;;;;;;9.52;6.60;;;9.90;99.90;;;;;;4992193;28;20089;-77
2023/11/17 12:34:27;;;;;;;9.35;5.63;;;9.90;99.90;;;;;;4988838;28;20029;-77
2023/11/17 12:37:01;;;;;;;9.43;4.90;;;9.90;99.90;;;;;;5011349;28;20061;-77
2023/11/17 12:39:37;;;;;;;8.60;5.65;;;10.00;99.90;;;;;;5008753;28;20068;-78
2023/11/17 12:42:17;;;;;;;10.82;5.38;;;10.00;99.90;;;;;;5004418;28;20714;-77
2023/11/17 12:44:42;;;;;;;6.90;4.25;;;10.10;99.90;;;;;;5004065;28;20026;-78
2023/11/17 12:47:12;;;;;;;9.13;4.25;;;10.10;99.90;;;;;;5001071;28;20046;-79
2023/11/17 12:49:51;;;;;;;6.15;4.35;;;10.10;99.90;;;;;;4994561;28;20081;-78
2023/11/17 12:52:17;;;;;;;9.35;3.75;;;10.10;99.90;;;;;;4995451;28;20039;-79